Terminal Aerodrome Forecast
Issued by NWS Sterling, VA

Current Version | Previous Version | Graphics & Text | Print | Product List | Glossary On
Versions: 1 2 3 4 5 6 7 8 9 10 11 12 13 14 15 16 17 18 19 20 21 22
000
FTUS41 KLWX 181100
TAFDCA
TAF
KDCA 181135Z 1812/1912 20007KT P6SM FEW090
     FM181400 28012G19KT P6SM SCT050
     FM181900 29017G24KT P6SM SCT040
     FM190000 30010KT P6SM BKN050=

USA.gov is the U.S. government's official web portal to all federal, state and local government web resources and services.